Time;durP1;ratioP1;P1;durP2;ratioP2;P2;SDS_P1;SDS_P2;PMS_P1;PMS_P2;Temp;Humidity;BMP_temperature;BMP_pressure;BME280_temperature;BME280_humidity;BME280_pressure;Samples;Min_cycle;Max_cycle;Signal;HPM_P1;HPM_P2
2021/05/05 00:00:23;;;;;;;10.35;5.60;;;6.20;83.90;;;;;;5054893;28;20377;-79
2021/05/05 00:02:49;;;;;;;9.48;5.82;;;6.20;83.70;;;;;;5055788;28;20029;-79
2021/05/05 00:05:15;;;;;;;12.88;5.85;;;6.30;83.50;;;;;;5056082;28;20032;-79
2021/05/05 00:07:42;;;;;;;7.47;5.25;;;6.20;83.50;;;;;;5055985;28;20025;-79
2021/05/05 00:10:09;;;;;;;8.38;5.07;;;6.20;83.50;;;;;;5055722;28;20025;-79
2021/05/05 00:12:36;;;;;;;8.32;5.00;;;6.20;83.50;;;;;;5056124;28;20459;-79
2021/05/05 00:15:05;;;;;;;9.45;5.05;;;6.20;83.40;;;;;;5054465;28;20489;-79
2021/05/05 00:17:31;;;;;;;9.15;5.70;;;6.20;83.40;;;;;;5056088;28;20033;-80
2021/05/05 00:19:57;;;;;;;8.55;5.20;;;6.20;83.40;;;;;;5056023;28;20467;-78
2021/05/05 00:22:22;;;;;;;6.78;4.90;;;6.20;83.20;;;;;;5055506;28;20029;-78
2021/05/05 00:24:48;;;;;;;8.82;5.13;;;6.20;83.20;;;;;;5055977;28;20032;-78
2021/05/05 00:27:13;;;;;;;9.30;4.75;;;6.20;83.20;;;;;;5055726;28;20028;-79
2021/05/05 00:29:39;;;;;;;8.15;4.50;;;6.20;83.10;;;;;;5055233;28;20126;-79
2021/05/05 00:32:05;;;;;;;7.93;4.75;;;6.20;83.10;;;;;;5055826;28;20345;-78
2021/05/05 00:34:31;;;;;;;7.22;4.80;;;6.20;83.00;;;;;;5054278;28;20048;-79
2021/05/05 00:36:56;;;;;;;10.75;5.00;;;6.20;83.10;;;;;;5055387;28;20129;-78
2021/05/05 00:39:22;;;;;;;8.00;5.57;;;6.20;83.20;;;;;;5055372;28;20025;-79
2021/05/05 00:41:48;;;;;;;6.80;5.05;;;6.20;83.40;;;;;;5055227;28;20430;-78
2021/05/05 00:44:16;;;;;;;5.85;4.82;;;6.20;83.30;;;;;;5055600;28;20029;-79
2021/05/05 00:46:41;;;;;;;7.80;4.97;;;6.10;83.10;;;;;;5055279;28;20025;-79
2021/05/05 00:49:07;;;;;;;8.60;5.32;;;6.10;83.20;;;;;;5053881;28;20434;-79
2021/05/05 00:51:33;;;;;;;7.28;4.93;;;6.10;83.00;;;;;;5055133;28;20426;-79
2021/05/05 00:53:59;;;;;;;6.25;5.00;;;6.10;83.00;;;;;;5055034;28;20099;-79
2021/05/05 00:56:24;;;;;;;7.35;4.85;;;6.20;83.00;;;;;;5055334;28;20029;-79
2021/05/05 00:58:50;;;;;;;7.25;5.20;;;6.10;83.00;;;;;;5055279;28;20033;-79
2021/05/05 01:01:16;;;;;;;6.18;4.97;;;6.10;82.90;;;;;;5054856;28;20032;-79
2021/05/05 01:03:42;;;;;;;5.88;5.05;;;6.20;82.80;;;;;;5054860;28;20122;-78
2021/05/05 01:06:07;;;;;;;7.90;5.90;;;6.10;82.80;;;;;;5054834;28;20524;-79
2021/05/05 01:08:33;;;;;;;9.52;6.82;;;6.20;82.80;;;;;;5055006;28;20032;-79
2021/05/05 01:11:00;;;;;;;16.45;10.32;;;6.10;83.50;;;;;;5053494;28;20021;-80
2021/05/05 01:13:26;;;;;;;17.30;12.13;;;6.10;83.00;;;;;;5053506;28;20025;-79
2021/05/05 01:15:52;;;;;;;20.95;13.63;;;6.10;83.00;;;;;;5054573;28;20017;-79
2021/05/05 01:18:18;;;;;;;27.25;16.00;;;6.20;83.00;;;;;;5054866;28;20367;-78
2021/05/05 01:20:43;;;;;;;23.50;14.90;;;6.10;83.00;;;;;;5054631;28;20029;-79
2021/05/05 01:23:09;;;;;;;19.23;12.52;;;6.10;83.00;;;;;;5054479;28;20051;-78
2021/05/05 01:25:35;;;;;;;16.83;10.73;;;6.20;82.90;;;;;;5054454;28;20033;-78
2021/05/05 01:28:01;;;;;;;14.43;9.50;;;6.20;82.80;;;;;;5054092;28;20580;-79
2021/05/05 01:30:27;;;;;;;12.52;8.38;;;6.20;82.90;;;;;;5054489;28;20411;-78
2021/05/05 01:32:53;;;;;;;10.70;6.85;;;6.10;82.90;;;;;;5054282;28;20070;-78
2021/05/05 01:35:20;;;;;;;10.40;6.50;;;6.20;83.00;;;;;;5054899;28;20154;-79
2021/05/05 01:37:50;;;;;;;7.43;5.80;;;6.10;83.20;;;;;;5053701;28;20013;-79
2021/05/05 01:40:21;;;;;;;10.13;5.75;;;6.10;83.30;;;;;;5054319;28;20378;-79
2021/05/05 01:42:47;;;;;;;7.25;5.60;;;6.10;83.40;;;;;;5054488;28;20106;-79
2021/05/05 01:45:13;;;;;;;6.45;5.47;;;6.10;83.80;;;;;;5054092;28;20028;-79
2021/05/05 01:47:40;;;;;;;7.78;5.50;;;6.10;83.80;;;;;;5053952;28;20027;-78
2021/05/05 01:50:07;;;;;;;8.10;5.22;;;6.00;83.80;;;;;;5053294;28;20446;-79
2021/05/05 01:52:33;;;;;;;6.28;5.15;;;6.00;83.90;;;;;;5054040;28;20100;-79
2021/05/05 01:54:58;;;;;;;7.55;5.63;;;6.00;83.80;;;;;;5052695;28;20052;-79
2021/05/05 01:57:31;;;;;;;7.20;5.45;;;6.00;83.90;;;;;;5053839;28;20021;-78
2021/05/05 01:59:57;;;;;;;8.60;5.03;;;6.00;83.90;;;;;;5052632;28;20029;-78
2021/05/05 02:02:27;;;;;;;6.05;5.28;;;6.00;83.80;;;;;;5053777;28;20548;-78
2021/05/05 02:04:53;;;;;;;8.40;5.65;;;6.00;84.00;;;;;;5052845;28;20029;-79
2021/05/05 02:07:19;;;;;;;7.15;5.80;;;5.90;84.10;;;;;;5053782;28;20100;-78
2021/05/05 02:09:45;;;;;;;11.30;5.88;;;5.90;84.20;;;;;;5053581;28;20064;-78
2021/05/05 02:12:12;;;;;;;10.35;6.20;;;5.90;84.30;;;;;;5054028;28;20025;-79
2021/05/05 02:14:38;;;;;;;7.88;5.93;;;5.90;84.40;;;;;;5053676;28;20368;-78
2021/05/05 02:17:03;;;;;;;9.77;7.05;;;5.90;84.70;;;;;;5053723;28;20071;-74
2021/05/05 02:19:29;;;;;;;10.38;6.93;;;5.90;84.70;;;;;;5053866;28;20032;-74
2021/05/05 02:21:55;;;;;;;11.00;7.82;;;5.90;84.70;;;;;;5053117;28;20036;-74
2021/05/05 02:24:20;;;;;;;11.95;8.20;;;5.90;84.90;;;;;;5053009;28;20025;-74
2021/05/05 02:26:46;;;;;;;12.77;8.52;;;5.90;85.20;;;;;;5052843;28;20463;-74
2021/05/05 02:29:12;;;;;;;14.52;8.95;;;5.80;85.10;;;;;;5052506;28;20120;-75
2021/05/05 02:31:38;;;;;;;13.70;8.73;;;5.90;85.40;;;;;;5052673;28;20043;-74
2021/05/05 02:34:04;;;;;;;11.07;8.32;;;5.90;85.50;;;;;;5053258;28;20057;-75
2021/05/05 02:36:31;;;;;;;12.82;8.40;;;5.90;85.50;;;;;;5053436;28;20038;-74
2021/05/05 02:38:58;;;;;;;10.88;8.23;;;5.90;85.60;;;;;;5053334;28;20033;-75
2021/05/05 02:41:24;;;;;;;12.60;8.57;;;5.90;85.60;;;;;;5054133;28;20033;-74
2021/05/05 02:43:50;;;;;;;11.75;8.07;;;5.90;85.60;;;;;;5053085;28;20025;-74
2021/05/05 02:46:16;;;;;;;11.27;7.70;;;6.00;85.60;;;;;;5051421;28;20040;-73
2021/05/05 02:48:42;;;;;;;11.15;6.93;;;6.00;85.50;;;;;;5050689;28;20112;-73
2021/05/05 02:51:08;;;;;;;10.50;7.65;;;6.00;85.80;;;;;;5049240;28;20076;-73
2021/05/05 02:53:33;;;;;;;11.52;7.82;;;6.10;85.80;;;;;;5056316;28;20029;-73
2021/05/05 02:55:59;;;;;;;11.98;8.02;;;6.10;86.30;;;;;;5056386;28;20253;-73
2021/05/05 02:58:25;;;;;;;11.05;7.70;;;6.10;86.40;;;;;;5056455;28;20528;-73
2021/05/05 03:00:51;;;;;;;13.30;9.20;;;6.10;86.10;;;;;;5056544;28;20517;-73
2021/05/05 03:03:16;;;;;;;11.50;8.45;;;6.20;86.40;;;;;;5056579;28;20446;-73
2021/05/05 03:05:42;;;;;;;12.40;8.43;;;6.20;86.40;;;;;;5055331;28;20060;-73
2021/05/05 03:08:08;;;;;;;11.15;7.75;;;6.20;86.20;;;;;;5055810;28;20039;-73
2021/05/05 03:10:34;;;;;;;13.45;8.40;;;6.20;86.20;;;;;;5056478;28;20025;-74
2021/05/05 03:12:59;;;;;;;13.73;8.77;;;6.30;86.60;;;;;;5056820;28;20021;-78
2021/05/05 03:15:25;;;;;;;12.35;8.15;;;6.30;86.60;;;;;;5056969;28;20025;-78
2021/05/05 03:17:51;;;;;;;13.27;8.00;;;6.30;86.60;;;;;;5056800;28;20021;-77
2021/05/05 03:20:16;;;;;;;11.20;7.57;;;6.30;86.60;;;;;;5056859;28;20110;-77
2021/05/05 03:22:42;;;;;;;12.93;7.95;;;6.30;86.70;;;;;;5055356;28;20028;-78
2021/05/05 03:25:08;;;;;;;12.77;8.93;;;6.40;86.80;;;;;;5056742;28;20025;-78
2021/05/05 03:27:34;;;;;;;11.95;8.30;;;6.40;86.90;;;;;;5056708;28;20551;-78
2021/05/05 03:30:00;;;;;;;15.13;8.13;;;6.40;86.90;;;;;;5056327;28;20088;-77
2021/05/05 03:32:26;;;;;;;14.60;8.85;;;6.40;86.80;;;;;;5054930;28;20052;-78
2021/05/05 03:34:52;;;;;;;16.80;10.80;;;6.40;87.00;;;;;;5056316;28;20104;-78
2021/05/05 03:37:18;;;;;;;15.60;10.93;;;6.50;87.30;;;;;;5056084;28;20025;-77
2021/05/05 03:39:43;;;;;;;15.93;10.95;;;6.50;87.50;;;;;;5056230;28;20021;-77
2021/05/05 03:42:09;;;;;;;14.57;9.90;;;6.50;87.80;;;;;;5056015;28;20124;-78
2021/05/05 03:44:35;;;;;;;15.27;9.75;;;6.60;87.90;;;;;;5056324;28;20021;-78
2021/05/05 03:47:01;;;;;;;11.98;8.85;;;6.70;87.80;;;;;;5056141;28;20109;-79
2021/05/05 03:49:26;;;;;;;13.18;8.45;;;6.70;88.30;;;;;;5054992;28;20032;-78
2021/05/05 03:51:53;;;;;;;13.45;9.10;;;6.80;88.00;;;;;;5054672;28;20420;-77
2021/05/05 03:54:18;;;;;;;11.00;7.97;;;6.90;88.30;;;;;;5055883;28;20379;-77
2021/05/05 03:56:45;;;;;;;10.10;7.50;;;7.00;88.70;;;;;;5056319;28;20050;-78
2021/05/05 03:59:11;;;;;;;10.15;7.28;;;7.10;88.90;;;;;;5056600;28;20025;-77
2021/05/05 04:01:37;;;;;;;10.07;7.05;;;7.20;88.80;;;;;;5055512;28;20029;-78
2021/05/05 04:04:03;;;;;;;8.85;6.68;;;7.30;89.00;;;;;;5056008;28;20028;-78
2021/05/05 04:06:29;;;;;;;9.63;6.78;;;7.50;89.30;;;;;;5055688;28;20032;-72
2021/05/05 04:08:54;;;;;;;15.68;7.47;;;7.60;90.00;;;;;;5054012;28;20032;-79
2021/05/05 04:11:20;;;;;;;16.85;7.55;;;7.70;89.70;;;;;;5055411;28;20017;-77
2021/05/05 04:13:46;;;;;;;12.20;6.03;;;7.80;89.90;;;;;;5055640;28;20029;-79
2021/05/05 04:16:12;;;;;;;20.20;6.50;;;7.90;89.70;;;;;;5056749;28;20025;-78
2021/05/05 04:18:38;;;;;;;16.80;6.90;;;8.10;90.00;;;;;;5055832;28;20029;-79
2021/05/05 04:21:06;;;;;;;15.80;5.57;;;8.20;90.20;;;;;;5055573;28;20029;-79
2021/05/05 04:23:33;;;;;;;12.60;5.90;;;8.30;90.00;;;;;;5054392;28;20446;-78
2021/05/05 04:25:59;;;;;;;19.15;7.53;;;8.40;89.90;;;;;;5054312;28;20031;-78
2021/05/05 04:28:25;;;;;;;27.60;7.88;;;8.50;90.00;;;;;;5055201;28;20041;-78
2021/05/05 04:30:51;;;;;;;24.00;7.10;;;8.70;90.30;;;;;;5054163;28;20074;-77
2021/05/05 04:33:16;;;;;;;14.70;6.55;;;8.80;90.10;;;;;;5055185;28;20104;-78
2021/05/05 04:35:42;;;;;;;14.20;6.50;;;8.90;90.20;;;;;;5053719;28;20090;-76
2021/05/05 04:38:08;;;;;;;13.93;7.32;;;9.00;90.30;;;;;;5055312;28;20163;-76
2021/05/05 04:40:34;;;;;;;15.18;7.93;;;9.10;90.10;;;;;;5055026;28;20029;-75
2021/05/05 04:43:00;;;;;;;13.55;7.22;;;9.30;90.00;;;;;;5054116;28;20060;-76
2021/05/05 04:45:26;;;;;;;14.73;6.32;;;9.40;90.10;;;;;;5055403;28;20104;-75
2021/05/05 04:47:52;;;;;;;11.55;6.50;;;9.50;90.00;;;;;;5054942;28;20470;-78
2021/05/05 04:50:18;;;;;;;12.57;6.25;;;9.70;89.80;;;;;;5053607;28;20029;-77
2021/05/05 04:52:44;;;;;;;14.50;7.43;;;9.90;89.60;;;;;;5055137;28;20021;-75
2021/05/05 04:55:10;;;;;;;9.10;6.75;;;10.00;89.60;;;;;;5052720;28;20043;-75
2021/05/05 04:57:36;;;;;;;9.55;6.00;;;10.10;89.50;;;;;;5053247;28;20033;-76
2021/05/05 05:00:05;;;;;;;8.02;6.05;;;10.20;89.60;;;;;;5054913;28;20032;-76
2021/05/05 05:02:30;;;;;;;13.05;6.00;;;10.40;89.80;;;;;;5053374;28;20074;-76
2021/05/05 05:04:56;;;;;;;9.70;6.05;;;10.50;89.70;;;;;;5054983;28;20418;-76
2021/05/05 05:07:22;;;;;;;9.27;6.15;;;10.60;89.90;;;;;;5053012;28;20033;-77
2021/05/05 05:09:47;;;;;;;13.32;7.57;;;10.80;89.60;;;;;;5054412;28;20418;-77
2021/05/05 05:12:13;;;;;;;6.80;5.50;;;10.90;89.60;;;;;;5054025;28;20021;-72
2021/05/05 05:14:39;;;;;;;6.60;4.82;;;11.10;89.60;;;;;;5052793;28;20029;-79
2021/05/05 05:17:05;;;;;;;9.23;5.25;;;11.30;89.50;;;;;;5053350;28;20024;-80
2021/05/05 05:19:31;;;;;;;7.63;4.70;;;11.60;89.40;;;;;;5052764;28;20029;-80
2021/05/05 05:21:56;;;;;;;5.07;4.13;;;11.90;89.00;;;;;;5051463;28;20033;-78
2021/05/05 05:24:22;;;;;;;8.38;4.72;;;12.20;88.30;;;;;;5052773;28;20017;-79
2021/05/05 05:26:48;;;;;;;6.68;5.28;;;12.40;87.30;;;;;;5052777;28;20063;-79
2021/05/05 05:29:13;;;;;;;6.03;4.00;;;12.60;87.00;;;;;;5052609;28;20458;-78
2021/05/05 05:31:39;;;;;;;4.85;4.07;;;12.70;86.40;;;;;;5052595;28;20021;-78
2021/05/05 05:34:05;;;;;;;4.03;3.67;;;12.80;86.00;;;;;;5052407;28;20082;-78
2021/05/05 05:36:30;;;;;;;5.03;4.18;;;13.00;85.50;;;;;;5052487;28;20028;-82
2021/05/05 05:38:56;;;;;;;5.90;4.43;;;13.10;85.00;;;;;;5052328;28;20037;-84
2021/05/05 05:41:22;;;;;;;5.03;3.90;;;13.20;84.40;;;;;;5052270;28;20032;-79
2021/05/05 05:43:47;;;;;;;5.55;4.20;;;13.30;83.90;;;;;;5053319;28;20040;-78
2021/05/05 05:46:13;;;;;;;7.85;5.38;;;13.40;83.90;;;;;;5052975;28;20025;-79
2021/05/05 05:48:39;;;;;;;5.65;4.22;;;13.50;83.90;;;;;;5054215;28;20375;-78
2021/05/05 05:51:05;;;;;;;5.70;4.68;;;13.60;83.60;;;;;;5054021;28;20360;-82
2021/05/05 05:53:31;;;;;;;5.85;4.32;;;13.70;82.90;;;;;;5054242;28;20021;-81
2021/05/05 05:55:56;;;;;;;6.88;4.25;;;13.80;82.50;;;;;;5054044;28;20078;-80
2021/05/05 05:58:22;;;;;;;4.28;3.60;;;13.90;82.40;;;;;;5053950;28;20021;-83
2021/05/05 06:00:48;;;;;;;4.70;3.90;;;14.00;81.40;;;;;;5053699;28;20104;-78
2021/05/05 06:03:13;;;;;;;3.83;3.35;;;14.10;81.30;;;;;;5053852;28;20021;-78
2021/05/05 06:05:39;;;;;;;8.05;4.60;;;14.00;80.80;;;;;;5053752;28;20059;-79
2021/05/05 06:08:05;;;;;;;6.85;4.00;;;14.00;80.80;;;;;;5053957;28;20390;-79
2021/05/05 06:10:31;;;;;;;5.50;4.03;;;14.00;80.70;;;;;;5053758;28;20020;-79
2021/05/05 06:12:57;;;;;;;7.00;4.80;;;14.00;81.10;;;;;;5053740;28;20024;-81
2021/05/05 06:15:24;;;;;;;6.35;4.90;;;14.00;81.00;;;;;;5053807;28;20025;-80
2021/05/05 06:17:50;;;;;;;6.90;4.35;;;14.10;81.40;;;;;;5053901;28;20036;-81
2021/05/05 06:20:16;;;;;;;12.10;3.90;;;14.10;81.50;;;;;;5053482;28;20040;-81
2021/05/05 06:22:42;;;;;;;5.22;4.30;;;14.30;81.30;;;;;;5053842;28;20021;-80
2021/05/05 06:25:09;;;;;;;6.80;4.72;;;14.30;81.20;;;;;;5053642;28;20025;-82
2021/05/05 06:27:36;;;;;;;5.40;4.32;;;14.40;81.10;;;;;;5052261;28;20029;-79
2021/05/05 06:30:04;;;;;;;5.57;3.83;;;14.50;81.20;;;;;;5053299;28;20114;-79
2021/05/05 06:32:30;;;;;;;8.38;4.78;;;14.60;81.20;;;;;;5051930;28;20029;-79
2021/05/05 06:34:56;;;;;;;6.68;4.63;;;14.70;80.90;;;;;;5052210;28;20124;-81
2021/05/05 06:37:23;;;;;;;9.10;3.90;;;14.70;81.00;;;;;;5052215;28;20470;-79
2021/05/05 06:39:49;;;;;;;7.32;3.97;;;14.80;81.00;;;;;;5052239;28;20543;-80
2021/05/05 06:42:14;;;;;;;8.15;4.20;;;14.90;80.60;;;;;;5053579;28;20048;-79
2021/05/05 06:44:40;;;;;;;6.15;4.25;;;15.00;80.20;;;;;;5051761;28;20112;-79
2021/05/05 06:47:06;;;;;;;6.28;3.90;;;15.00;80.00;;;;;;5051492;28;20470;-80
2021/05/05 06:49:35;;;;;;;6.45;3.38;;;15.10;80.00;;;;;;5050318;28;20469;-79
2021/05/05 06:52:02;;;;;;;5.78;3.78;;;15.10;79.40;;;;;;5051463;28;20017;-81
2021/05/05 06:54:28;;;;;;;5.60;3.72;;;15.20;79.80;;;;;;5050277;28;20033;-81
2021/05/05 06:56:54;;;;;;;6.30;4.30;;;15.20;79.90;;;;;;5050272;28;20526;-80
2021/05/05 06:59:19;;;;;;;4.28;3.70;;;15.30;79.60;;;;;;5050091;28;20041;-77
2021/05/05 07:01:45;;;;;;;5.40;3.67;;;15.30;79.50;;;;;;5051613;28;20025;-78
2021/05/05 07:04:11;;;;;;;7.63;3.70;;;15.40;79.20;;;;;;5051419;28;20021;-79
2021/05/05 07:06:37;;;;;;;5.25;3.60;;;15.50;78.90;;;;;;5051431;28;20024;-79
2021/05/05 07:09:07;;;;;;;4.70;4.13;;;15.60;78.90;;;;;;5051278;28;20063;-77
2021/05/05 07:11:35;;;;;;;6.10;3.67;;;15.60;78.70;;;;;;5051358;28;20025;-77
2021/05/05 07:14:01;;;;;;;8.27;3.38;;;15.70;78.50;;;;;;5050264;28;20048;-82
2021/05/05 07:16:27;;;;;;;5.97;3.50;;;15.70;78.40;;;;;;5051305;28;20055;-76
2021/05/05 07:18:52;;;;;;;3.30;2.97;;;15.70;78.80;;;;;;5051311;28;20060;-88
2021/05/05 07:21:18;;;;;;;4.10;3.60;;;15.80;78.10;;;;;;5051213;28;20025;-79
2021/05/05 07:23:44;;;;;;;5.22;3.30;;;15.80;78.60;;;;;;5051298;28;20048;-82
2021/05/05 07:26:10;;;;;;;5.47;2.95;;;15.90;77.80;;;;;;5051257;28;20033;-80
2021/05/05 07:28:37;;;;;;;8.82;3.53;;;16.00;78.20;;;;;;5049725;28;20045;-80
2021/05/05 07:31:04;;;;;;;3.90;2.95;;;16.10;77.30;;;;;;5049834;28;20382;-83
2021/05/05 07:33:30;;;;;;;3.70;2.95;;;16.20;77.30;;;;;;5051234;28;20075;-78
2021/05/05 07:35:57;;;;;;;8.00;3.38;;;16.40;77.30;;;;;;5051600;28;20029;-78
2021/05/05 07:47:06;;;;;;;6.88;3.08;;;16.80;75.90;;;;;;5056842;28;20163;-84
2021/05/05 07:49:23;;;;;;;4.88;2.92;;;16.90;74.40;;;;;;5056046;28;20029;-83
2021/05/05 07:51:50;;;;;;;7.22;2.80;;;17.00;74.90;;;;;;5056607;28;20028;-85
2021/05/05 07:54:16;;;;;;;6.88;2.80;;;17.10;74.10;;;;;;5056364;28;20029;-83
2021/05/05 07:56:42;;;;;;;6.55;2.55;;;17.20;72.90;;;;;;5056317;28;20096;-79
2021/05/05 07:59:08;;;;;;;5.78;2.80;;;17.30;72.50;;;;;;5055117;28;20170;-83
2021/05/05 08:01:37;;;;;;;2.55;2.35;;;17.40;72.40;;;;;;5056271;28;20032;-81
2021/05/05 08:04:04;;;;;;;6.05;2.92;;;17.50;71.80;;;;;;5056295;28;20017;-86
2021/05/05 08:06:30;;;;;;;9.80;3.58;;;17.60;70.80;;;;;;5056180;28;20387;-80
2021/05/05 08:08:56;;;;;;;4.57;2.70;;;17.70;70.00;;;;;;5055786;28;20029;-79
2021/05/05 08:11:23;;;;;;;2.35;2.15;;;17.80;69.20;;;;;;5056209;28;20463;-79
2021/05/05 08:13:49;;;;;;;5.35;2.75;;;17.90;69.10;;;;;;5056007;28;20021;-78
2021/05/05 08:16:16;;;;;;;3.85;2.17;;;18.00;69.00;;;;;;5055807;28;20047;-77
2021/05/05 08:18:41;;;;;;;3.13;2.38;;;18.10;69.10;;;;;;5056073;28;20025;-77
2021/05/05 08:21:08;;;;;;;5.15;2.72;;;18.30;68.50;;;;;;5055679;28;20107;-76
2021/05/05 08:23:35;;;;;;;4.97;2.53;;;18.40;68.70;;;;;;5055630;28;20059;-80
2021/05/05 08:26:02;;;;;;;4.55;2.28;;;18.50;68.10;;;;;;5037823;28;20040;-77
2021/05/05 08:28:28;;;;;;;4.15;2.38;;;18.70;67.40;;;;;;5055497;28;20467;-77
2021/05/05 08:30:53;;;;;;;4.75;2.55;;;18.80;66.30;;;;;;5055550;28;20104;-78
2021/05/05 08:33:19;;;;;;;3.17;2.45;;;18.90;65.80;;;;;;5055601;28;20025;-80
2021/05/05 08:35:45;;;;;;;4.72;2.30;;;19.00;65.20;;;;;;5055687;28;20021;-80
2021/05/05 08:38:11;;;;;;;2.58;2.03;;;19.20;64.40;;;;;;5054208;28;20471;-83
2021/05/05 08:40:37;;;;;;;3.47;2.47;;;19.30;62.80;;;;;;5055503;28;20021;-79
2021/05/05 08:43:03;;;;;;;3.22;2.42;;;19.30;62.90;;;;;;5055265;28;20021;-82
2021/05/05 08:45:30;;;;;;;7.65;2.45;;;19.30;63.40;;;;;;5055325;28;20048;-77
2021/05/05 08:47:59;;;;;;;10.02;2.42;;;19.30;63.00;;;;;;5055309;28;20101;-80
2021/05/05 08:50:26;;;;;;;5.30;2.80;;;19.40;62.70;;;;;;5055340;28;20418;-85
2021/05/05 08:52:53;;;;;;;6.10;3.00;;;19.50;62.20;;;;;;5055176;28;20013;-80
2021/05/05 08:55:20;;;;;;;5.78;2.80;;;19.60;62.40;;;;;;5053943;28;20048;-78
2021/05/05 08:57:47;;;;;;;8.07;2.97;;;19.70;61.50;;;;;;5055237;28;20013;-72
2021/05/05 09:00:19;;;;;;;4.13;3.10;;;19.80;61.20;;;;;;5055116;28;20056;-78
2021/05/05 09:02:44;;;;;;;3.33;2.30;;;19.80;61.00;;;;;;5055255;28;20071;-83
2021/05/05 09:05:13;;;;;;;6.13;2.83;;;19.80;60.90;;;;;;5054828;28;20482;-80
2021/05/05 09:07:40;;;;;;;3.25;2.40;;;19.90;61.10;;;;;;5053627;28;20467;-81
2021/05/05 09:10:10;;;;;;;4.80;2.50;;;19.90;61.10;;;;;;5053583;28;20429;-79
2021/05/05 09:12:38;;;;;;;3.47;2.72;;;20.10;60.40;;;;;;5054965;28;20025;-76
2021/05/05 09:15:28;;;;;;;6.60;2.83;;;20.20;60.80;;;;;;5053430;28;20429;-81
2021/05/05 09:17:56;;;;;;;6.55;2.28;;;20.30;60.20;;;;;;5054573;28;20063;-79
2021/05/05 09:20:24;;;;;;;2.95;2.40;;;20.20;59.20;;;;;;5054649;28;20021;-79
2021/05/05 09:22:54;;;;;;;4.90;2.60;;;20.30;59.00;;;;;;5053331;28;20119;-76
2021/05/05 09:25:25;;;;;;;3.53;2.70;;;20.20;58.80;;;;;;5054492;28;20132;-76
2021/05/05 09:28:20;;;;;;;9.05;3.70;;;20.30;59.70;;;;;;5054018;28;20471;-81
2021/05/05 09:30:48;;;;;;;5.65;3.80;;;20.30;62.50;;;;;;5052257;28;20036;-84
2021/05/05 09:33:33;;;;;;;4.20;2.70;;;20.30;63.30;;;;;;5054085;28;20021;-82
2021/05/05 09:36:06;;;;;;;11.27;3.17;;;20.30;61.80;;;;;;5051376;28;20029;-77
2021/05/05 09:38:39;;;;;;;9.52;2.72;;;20.30;60.50;;;;;;5054979;28;20033;-81
2021/05/05 09:41:04;;;;;;;5.70;2.95;;;20.40;60.90;;;;;;5053797;28;20025;-75
2021/05/05 09:43:36;;;;;;;10.10;2.65;;;20.50;61.10;;;;;;5053943;28;20360;-75
2021/05/05 09:46:03;;;;;;;5.63;2.15;;;20.60;58.20;;;;;;5053273;28;20074;-81
2021/05/05 09:48:28;;;;;;;3.03;2.40;;;20.60;59.60;;;;;;5053378;28;20418;-75
2021/05/05 09:50:59;;;;;;;9.57;2.65;;;20.60;58.70;;;;;;5053179;28;20024;-76
2021/05/05 09:53:32;;;;;;;2.53;2.30;;;20.70;58.10;;;;;;5052665;28;20021;-84
2021/05/05 09:55:58;;;;;;;5.10;2.63;;;20.70;57.70;;;;;;5052207;28;20025;-80
2021/05/05 09:58:25;;;;;;;9.68;2.50;;;20.80;57.90;;;;;;5052028;28;20032;-94
2021/05/05 10:01:07;;;;;;;5.72;2.60;;;21.00;57.60;;;;;;5053607;28;20027;-83
2021/05/05 10:03:43;;;;;;;8.48;2.85;;;21.10;56.10;;;;;;5052480;28;20391;-74
2021/05/05 10:06:23;;;;;;;8.38;5.32;;;21.00;56.00;;;;;;5051936;28;20055;-80
2021/05/05 10:08:52;;;;;;;5.55;2.75;;;21.00;55.90;;;;;;5050837;28;20104;-78
2021/05/05 10:11:29;;;;;;;2.53;2.33;;;20.90;56.40;;;;;;5051699;28;20498;-77
2021/05/05 10:14:03;;;;;;;6.60;3.38;;;20.90;56.40;;;;;;5051834;28;20020;-87
2021/05/05 10:16:33;;;;;;;6.82;3.30;;;20.90;57.10;;;;;;5051931;28;20023;-76
2021/05/05 10:19:00;;;;;;;9.02;3.10;;;21.00;56.40;;;;;;5051691;28;20028;-79
2021/05/05 10:21:33;;;;;;;4.50;3.10;;;21.10;57.40;;;;;;5051292;28;20017;-76
2021/05/05 10:24:00;;;;;;;5.82;3.60;;;21.20;56.20;;;;;;5051057;28;20037;-73
2021/05/05 10:26:27;;;;;;;4.68;3.60;;;21.20;56.30;;;;;;5051240;28;20028;-76
2021/05/05 10:28:53;;;;;;;2.90;2.40;;;21.30;56.70;;;;;;5050886;28;20089;-76
2021/05/05 10:31:26;;;;;;;5.00;2.65;;;21.40;55.50;;;;;;5051503;28;20056;-76
2021/05/05 10:33:57;;;;;;;5.97;2.38;;;21.40;56.00;;;;;;5051546;28;20019;-73
2021/05/05 10:36:38;;;;;;;7.82;2.90;;;21.60;56.30;;;;;;5051523;28;20429;-81
2021/05/05 10:39:29;;;;;;;6.25;2.80;;;21.70;55.70;;;;;;5051199;28;20032;-80
2021/05/05 10:42:02;;;;;;;5.18;2.70;;;21.70;54.40;;;;;;5051891;28;20345;-76
2021/05/05 10:44:34;;;;;;;14.98;3.45;;;21.70;55.20;;;;;;5052603;28;20134;-75
2021/05/05 10:47:31;;;;;;;3.03;2.47;;;21.70;54.80;;;;;;5052570;28;20116;-83
2021/05/05 10:50:00;;;;;;;5.20;2.72;;;21.80;54.70;;;;;;5052565;28;20029;-79
2021/05/05 10:52:27;;;;;;;5.07;2.77;;;21.80;55.40;;;;;;5051276;28;20021;-75
2021/05/05 10:54:59;;;;;;;2.08;1.95;;;21.90;54.40;;;;;;5052565;28;20018;-76
2021/05/05 10:57:26;;;;;;;6.85;2.50;;;22.10;53.30;;;;;;5051186;28;20021;-82
2021/05/05 10:59:57;;;;;;;7.90;2.33;;;22.20;52.50;;;;;;5053371;28;20025;-73
2021/05/05 11:02:38;;;;;;;2.47;2.28;;;22.20;52.50;;;;;;5052929;28;20033;-73
2021/05/05 11:08:51;;;;;;;6.95;2.65;;;22.20;53.00;;;;;;5051864;28;20091;-76
2021/05/05 11:11:46;;;;;;;4.03;2.30;;;22.30;53.90;;;;;;5054262;28;20021;-85
2021/05/05 11:14:23;;;;;;;12.57;3.00;;;22.40;51.50;;;;;;5056593;28;20013;-77
2021/05/05 11:16:52;;;;;;;3.05;2.28;;;22.40;52.20;;;;;;5057206;28;20075;-72
2021/05/05 11:22:32;;;;;;;4.40;2.10;;;22.20;50.60;;;;;;5057549;28;20471;-79
2021/05/05 11:25:16;;;;;;;3.40;2.40;;;22.00;51.30;;;;;;5054347;28;20033;-79
2021/05/05 11:27:50;;;;;;;10.98;2.60;;;21.90;52.50;;;;;;5056576;28;20017;-79
2021/05/05 11:30:38;;;;;;;4.90;2.40;;;21.90;52.70;;;;;;5056611;28;20025;-74
2021/05/05 11:33:05;;;;;;;3.88;2.40;;;21.90;53.00;;;;;;5056688;28;20021;-75
2021/05/05 11:35:32;;;;;;;3.08;2.30;;;22.00;53.60;;;;;;5056534;28;20016;-74
2021/05/05 11:38:32;;;;;;;4.90;2.33;;;22.10;52.90;;;;;;5056881;28;20049;-75
2021/05/05 11:41:02;;;;;;;2.17;1.98;;;22.10;52.60;;;;;;5044915;28;20483;-75
2021/05/05 11:43:29;;;;;;;3.38;2.42;;;22.20;53.00;;;;;;5056181;28;20104;-76
2021/05/05 11:45:57;;;;;;;3.60;1.67;;;22.20;52.60;;;;;;5055589;28;20032;-77
2021/05/05 11:48:28;;;;;;;3.33;2.08;;;22.30;52.00;;;;;;5055549;28;20029;-77
2021/05/05 11:50:54;;;;;;;3.65;2.20;;;22.30;51.90;;;;;;5055365;28;20025;-74
2021/05/05 11:53:36;;;;;;;5.35;2.65;;;22.30;52.00;;;;;;5055218;28;20036;-75
2021/05/05 11:56:13;;;;;;;4.10;2.10;;;22.30;51.50;;;;;;5055428;28;20410;-72
2021/05/05 11:58:40;;;;;;;2.30;2.10;;;22.30;52.10;;;;;;5055456;28;20017;-82
2021/05/05 12:01:05;;;;;;;4.90;2.10;;;22.30;52.00;;;;;;5053987;28;20383;-76
2021/05/05 12:03:31;;;;;;;6.32;2.30;;;22.40;52.00;;;;;;5054944;28;20028;-73
2021/05/05 12:05:57;;;;;;;4.10;2.30;;;22.60;52.00;;;;;;5054910;28;20040;-73
2021/05/05 12:08:25;;;;;;;4.70;2.25;;;22.70;51.40;;;;;;5055215;28;20104;-72
2021/05/05 12:10:58;;;;;;;8.10;2.80;;;22.60;51.20;;;;;;5055218;28;20095;-76
2021/05/05 12:13:39;;;;;;;3.13;2.22;;;22.40;50.70;;;;;;5055421;28;20087;-78
2021/05/05 12:16:16;;;;;;;5.40;2.05;;;22.20;50.90;;;;;;5054611;28;20055;-82
2021/05/05 12:18:46;;;;;;;5.15;2.10;;;22.00;51.70;;;;;;5054339;28;20483;-78
2021/05/05 12:21:16;;;;;;;4.00;2.78;;;21.90;52.30;;;;;;5054985;28;20064;-75
2021/05/05 12:23:48;;;;;;;2.50;2.30;;;21.80;52.50;;;;;;5054075;28;20024;-75
2021/05/05 12:26:27;;;;;;;2.38;2.05;;;21.90;53.00;;;;;;5054738;28;20475;-79
2021/05/05 12:28:57;;;;;;;2.88;2.20;;;22.00;52.10;;;;;;5054773;28;20395;-74
2021/05/05 12:31:28;;;;;;;5.50;2.13;;;22.10;52.40;;;;;;5054432;28;20110;-74
2021/05/05 12:33:54;;;;;;;3.35;1.95;;;22.10;52.30;;;;;;5054422;28;20116;-75
2021/05/05 12:36:23;;;;;;;4.43;2.17;;;22.00;51.80;;;;;;5054236;28;20108;-83
2021/05/05 12:38:51;;;;;;;3.25;2.50;;;21.90;52.10;;;;;;5054255;28;20035;-75
2021/05/05 12:41:19;;;;;;;4.93;2.30;;;21.90;52.10;;;;;;5054365;28;20031;-78
2021/05/05 12:43:56;;;;;;;7.07;2.70;;;21.60;51.90;;;;;;5053396;28;20025;-73
2021/05/05 12:46:56;;;;;;;7.75;2.35;;;21.50;52.10;;;;;;5055472;28;20021;-71
2021/05/05 12:49:29;;;;;;;4.18;2.10;;;21.40;52.50;;;;;;5055491;28;20044;-73
2021/05/05 12:51:56;;;;;;;4.85;2.30;;;21.30;52.90;;;;;;5056065;28;20057;-72
2021/05/05 12:54:27;;;;;;;6.22;2.10;;;21.30;52.70;;;;;;5055067;28;20021;-73
2021/05/05 12:56:54;;;;;;;7.15;2.30;;;21.40;52.90;;;;;;5055489;28;20348;-78
2021/05/05 12:59:24;;;;;;;9.93;2.55;;;21.40;52.60;;;;;;5055236;28;20447;-73
2021/05/05 13:02:01;;;;;;;;;;;21.50;52.60;;;;;;5055997;28;20094;-74
2021/05/05 13:04:37;;;;;;;3.72;2.70;;;21.70;52.50;;;;;;5054731;28;19905;-79
2021/05/05 13:07:04;;;;;;;6.20;2.30;;;22.00;51.90;;;;;;5055070;28;20463;-75